createdAt,value
2017-09-22T13:11:39.062Z,17.34
2017-09-22T13:12:40.942Z,17.41
2017-09-22T13:13:42.826Z,17.36
2017-09-22T13:14:44.707Z,17.38
2017-09-22T13:15:46.531Z,17.55
2017-09-22T13:16:48.363Z,17.70
2017-09-22T13:17:50.241Z,17.59
2017-09-22T13:18:52.136Z,17.70
2017-09-22T13:19:54.027Z,17.78
2017-09-22T13:21:08.191Z,17.81
2017-09-22T13:22:10.105Z,17.79
2017-09-22T13:23:11.967Z,17.99
2017-09-22T13:24:13.856Z,17.99
2017-09-22T13:25:15.741Z,18.15
2017-09-22T13:26:17.563Z,18.25
2017-09-22T13:27:19.452Z,18.36
2017-09-22T13:28:21.351Z,18.36
2017-09-22T13:29:23.239Z,18.36
2017-09-22T13:30:37.406Z,18.33
2017-09-22T13:31:39.309Z,18.25
2017-09-22T13:32:41.185Z,18.35
2017-09-22T13:33:43.077Z,18.32
2017-09-22T13:34:44.912Z,18.36
2017-09-22T13:35:46.765Z,18.37
2017-09-22T13:36:48.650Z,18.42
2017-09-22T13:37:50.540Z,18.48
2017-09-22T13:38:52.435Z,18.42
2017-09-22T13:40:06.606Z,18.32
2017-09-22T13:41:08.500Z,18.25
2017-09-22T13:42:10.387Z,18.23
2017-09-22T13:43:12.279Z,18.23
2017-09-22T13:44:14.112Z,18.12
2017-09-22T13:45:15.938Z,18.02
2017-09-22T13:46:17.831Z,18.07
2017-09-22T13:47:19.721Z,18.05
2017-09-22T13:48:21.613Z,18.08
2017-09-22T13:49:35.783Z,18.10
2017-09-22T13:50:37.679Z,18.14
2017-09-22T13:51:39.613Z,18.05
2017-09-22T13:52:41.513Z,18.03
2017-09-22T13:53:43.335Z,17.93
2017-09-22T13:54:45.161Z,17.93
2017-09-22T13:55:47.050Z,17.96
2017-09-22T13:56:48.939Z,18.08
2017-09-22T13:57:50.827Z,18.11
2017-09-22T13:59:05.045Z,18.21
2017-09-22T14:00:06.939Z,18.33
2017-09-22T14:01:08.826Z,18.55
2017-09-22T14:02:10.716Z,18.67
2017-09-22T14:03:12.546Z,18.66
2017-09-22T14:04:14.379Z,18.76
2017-09-22T14:05:16.269Z,19.00
2017-09-22T14:06:18.162Z,19.10
2017-09-22T14:07:20.056Z,19.06
2017-09-22T14:08:34.245Z,19.26
2017-09-22T14:09:36.136Z,19.36
2017-09-22T14:10:38.020Z,19.31
2017-09-22T14:11:39.910Z,19.31
2017-09-22T14:12:41.739Z,19.33
2017-09-22T14:13:43.571Z,19.36
2017-09-22T14:14:45.459Z,19.43
2017-09-22T14:15:47.351Z,19.55
2017-09-22T14:16:49.240Z,19.62
2017-09-22T14:18:03.415Z,19.63
2017-09-22T14:19:05.306Z,19.77
2017-09-22T14:20:07.200Z,19.78
2017-09-22T14:21:09.095Z,19.76
2017-09-22T14:22:10.928Z,19.87
2017-09-22T14:23:13.040Z,19.94
2017-09-22T14:24:14.898Z,20.11
2017-09-22T14:25:16.790Z,20.11
2017-09-22T14:26:18.684Z,20.10
2017-09-22T14:27:32.855Z,20.03
2017-09-22T14:28:34.756Z,20.11
2017-09-22T14:29:36.648Z,20.21
2017-09-22T14:30:38.542Z,20.28
2017-09-22T14:31:40.374Z,20.36
2017-09-22T14:32:42.200Z,20.31
2017-09-22T14:33:44.104Z,20.24
2017-09-22T14:34:45.995Z,20.16
2017-09-22T14:35:47.885Z,20.01
2017-09-22T14:37:02.054Z,19.73
2017-09-22T14:38:03.948Z,19.66
2017-09-22T14:39:05.837Z,19.71
2017-09-22T14:40:07.729Z,19.61
2017-09-22T14:41:09.560Z,19.41
2017-09-22T14:42:11.387Z,19.31
2017-09-22T14:43:13.276Z,19.07
2017-09-22T14:44:15.178Z,18.69
2017-09-22T14:45:17.070Z,18.67
2017-09-22T14:46:31.237Z,18.48
2017-09-22T14:47:33.128Z,18.63
2017-09-22T14:48:35.016Z,18.63
2017-09-22T14:49:36.909Z,18.66
2017-09-22T14:50:38.741Z,18.54
2017-09-22T14:51:40.570Z,18.58
2017-09-22T14:52:42.461Z,18.44
2017-09-22T14:53:44.353Z,18.52
2017-09-22T14:54:46.254Z,18.67
2017-09-22T14:56:00.425Z,18.60
2017-09-22T14:57:02.313Z,18.62
2017-09-22T14:58:04.204Z,18.58
2017-09-22T14:59:06.096Z,18.57
2017-09-22T15:00:07.926Z,18.52
2017-09-22T15:01:09.749Z,18.54
2017-09-22T15:02:11.659Z,18.48
2017-09-22T15:03:13.543Z,18.66
2017-09-22T15:04:15.437Z,18.78
2017-09-22T15:05:29.605Z,18.66
2017-09-22T15:06:31.497Z,18.66
2017-09-22T15:07:33.392Z,18.60
2017-09-22T15:08:35.301Z,18.55
2017-09-22T15:09:37.123Z,18.66
2017-09-22T15:10:38.964Z,18.55
2017-09-22T15:11:40.879Z,18.52
2017-09-22T15:12:42.783Z,18.48
2017-09-22T15:13:44.670Z,18.55
2017-09-22T15:14:58.838Z,18.47
2017-09-22T15:16:00.758Z,18.47
2017-09-22T15:17:02.652Z,18.57
2017-09-22T15:18:04.547Z,18.42
2017-09-22T15:19:06.393Z,18.41
2017-09-22T15:20:08.243Z,18.39
2017-09-22T15:21:10.115Z,18.33
2017-09-22T15:22:11.968Z,18.25
2017-09-22T15:23:13.796Z,18.21
2017-09-22T15:24:27.964Z,18.27
2017-09-22T15:25:29.859Z,18.23
2017-09-22T15:26:31.751Z,18.30
2017-09-22T15:27:33.645Z,18.33
2017-09-22T15:28:35.476Z,18.39
2017-09-22T15:29:37.312Z,18.47
2017-09-22T15:30:39.200Z,18.51
2017-09-22T15:31:41.090Z,18.47
2017-09-22T15:32:42.992Z,18.55
2017-09-22T15:33:57.160Z,18.54
2017-09-22T15:34:59.055Z,18.57
2017-09-22T15:36:00.950Z,18.65
2017-09-22T15:37:02.841Z,18.69
2017-09-22T15:38:04.682Z,18.69
2017-09-22T15:39:06.519Z,18.73
2017-09-22T15:40:08.410Z,18.66
2017-09-22T15:41:10.302Z,18.76
2017-09-22T15:42:12.191Z,18.84
2017-09-22T15:43:26.359Z,18.85
2017-09-22T15:44:28.251Z,18.90
2017-09-22T15:45:30.139Z,18.99
2017-09-22T15:46:32.031Z,18.98
2017-09-22T15:47:33.871Z,18.91
2017-09-22T15:48:35.699Z,18.98
2017-09-22T15:49:37.588Z,18.99
2017-09-22T15:50:39.479Z,19.11
2017-09-22T15:51:41.368Z,19.10
2017-09-22T15:52:55.541Z,19.10
2017-09-22T15:53:57.430Z,19.08
2017-09-22T15:54:59.320Z,19.10
2017-09-22T15:56:01.211Z,19.08
2017-09-22T15:57:03.050Z,19.10
2017-09-22T15:58:04.876Z,19.06
2017-09-22T15:59:06.770Z,19.04
2017-09-22T16:00:08.660Z,19.13
2017-09-22T16:01:10.561Z,19.08
2017-09-22T16:02:24.780Z,19.08
2017-09-22T16:03:26.670Z,19.11
2017-09-22T16:04:28.561Z,19.02
2017-09-22T16:05:30.453Z,19.13
2017-09-22T16:06:32.282Z,19.11
2017-09-22T16:07:34.106Z,19.08
2017-09-22T16:08:36.011Z,19.04
2017-09-22T16:09:37.904Z,19.02
2017-09-22T16:10:39.798Z,19.04
2017-09-22T16:11:53.967Z,19.00
2017-09-22T16:12:55.857Z,19.16
2017-09-22T16:13:57.751Z,19.07
2017-09-22T16:14:59.646Z,19.19
2017-09-22T16:16:01.472Z,19.22
2017-09-22T16:17:03.297Z,19.22
2017-09-22T16:18:05.189Z,19.23
2017-09-22T16:19:07.081Z,19.18
2017-09-22T16:20:08.979Z,19.21
2017-09-22T16:21:23.146Z,19.21
2017-09-22T16:22:25.040Z,19.07
2017-09-22T16:23:26.931Z,19.10
2017-09-22T16:24:28.825Z,19.13
2017-09-22T16:25:30.659Z,19.04
2017-09-22T16:26:32.496Z,19.08
2017-09-22T16:27:34.398Z,18.92
2017-09-22T16:28:36.299Z,19.00
2017-09-22T16:29:38.190Z,18.99
2017-09-22T16:30:52.441Z,18.85
2017-09-22T16:31:54.331Z,18.78
2017-09-22T16:32:56.225Z,18.76
2017-09-22T16:33:58.123Z,18.78
2017-09-22T16:34:59.967Z,18.69
2017-09-22T16:36:01.801Z,18.60
2017-09-22T16:37:03.691Z,18.62
2017-09-22T16:38:05.583Z,18.52
2017-09-22T16:39:07.472Z,18.48
2017-09-22T16:40:21.638Z,18.42
2017-09-22T16:41:23.533Z,18.29
2017-09-22T16:42:25.420Z,18.25
2017-09-22T16:43:27.307Z,18.17
2017-09-22T16:44:29.135Z,17.99
2017-09-22T16:45:30.984Z,17.93
2017-09-22T16:46:32.861Z,17.92
2017-09-22T16:47:34.710Z,17.97
2017-09-22T16:48:36.539Z,17.90
2017-09-22T16:49:50.751Z,17.75
2017-09-22T16:50:52.643Z,17.74
2017-09-22T16:51:54.560Z,17.63
2017-09-22T16:52:56.423Z,17.62
2017-09-22T16:53:58.254Z,17.66
2017-09-22T16:55:00.079Z,17.62
2017-09-22T16:56:01.964Z,17.66
2017-09-22T16:57:03.849Z,17.63
2017-09-22T16:58:05.739Z,17.64
2017-09-22T16:59:19.898Z,17.58
2017-09-22T17:00:21.790Z,17.48
2017-09-22T17:01:23.679Z,17.40
2017-09-22T17:02:25.567Z,17.28
2017-09-22T17:03:27.588Z,17.22
2017-09-22T17:04:29.424Z,17.28
2017-09-22T17:05:31.310Z,17.19
2017-09-22T17:06:33.205Z,17.25
2017-09-22T17:07:35.085Z,17.26
2017-09-22T17:08:49.247Z,17.38
2017-09-22T17:09:51.133Z,17.31
2017-09-22T17:10:53.022Z,17.38
2017-09-22T17:11:54.922Z,17.36
2017-09-22T17:12:56.736Z,17.43
2017-09-22T17:13:58.555Z,17.21
2017-09-22T17:15:00.451Z,17.25
2017-09-22T17:16:02.341Z,17.26
2017-09-22T17:17:04.227Z,17.18
2017-09-22T17:18:18.393Z,17.19
2017-09-22T17:19:20.281Z,17.07
2017-09-22T17:20:22.171Z,17.06
2017-09-22T17:21:24.389Z,16.98
2017-09-22T17:22:26.285Z,17.07
2017-09-22T17:23:28.107Z,17.03
2017-09-22T17:24:29.991Z,17.04
2017-09-22T17:25:31.875Z,17.08
2017-09-22T17:26:33.773Z,17.04
2017-09-22T17:27:47.921Z,17.03
2017-09-22T17:28:49.812Z,17.06
2017-09-22T17:29:51.695Z,17.00
2017-09-22T17:30:53.581Z,16.89
2017-09-22T17:31:55.405Z,16.88
2017-09-22T17:32:57.224Z,16.91
2017-09-22T17:33:59.110Z,16.88
2017-09-22T17:35:00.996Z,16.93
2017-09-22T17:36:02.897Z,16.94
2017-09-22T17:37:17.045Z,16.93
2017-09-22T17:38:18.932Z,16.85
2017-09-22T17:39:20.821Z,16.64
2017-09-22T17:40:22.709Z,16.50
2017-09-22T17:41:24.531Z,16.23
2017-09-22T17:42:26.363Z,16.04
2017-09-22T17:43:28.247Z,15.86
2017-09-22T17:44:30.142Z,15.83
2017-09-22T17:45:32.028Z,15.69
2017-09-22T17:46:46.213Z,15.62
2017-09-22T17:47:48.102Z,15.57
2017-09-22T17:48:49.987Z,15.50
2017-09-22T17:49:51.892Z,15.38
2017-09-22T17:50:53.898Z,15.35
2017-09-22T17:51:55.696Z,15.36
2017-09-22T17:52:57.594Z,15.34
2017-09-22T17:53:59.479Z,15.21
2017-09-22T17:55:01.364Z,15.21
2017-09-22T17:56:15.585Z,15.11
2017-09-22T17:57:17.470Z,15.09
2017-09-22T17:58:19.365Z,15.10
2017-09-22T17:59:21.253Z,14.96
2017-09-22T18:00:23.080Z,14.92
2017-09-22T18:01:24.900Z,14.92
2017-09-22T18:02:26.787Z,14.92
2017-09-22T18:03:28.678Z,14.83
2017-09-22T18:04:30.557Z,14.91
2017-09-22T18:05:44.766Z,14.88
2017-09-22T18:06:46.658Z,14.80
2017-09-22T18:07:48.540Z,14.80
2017-09-22T18:08:50.427Z,14.73
2017-09-22T18:09:52.252Z,14.75
2017-09-22T18:10:54.087Z,14.70
2017-09-22T18:11:55.969Z,14.72
2017-09-22T18:12:57.854Z,14.68
2017-09-22T18:13:59.741Z,14.62
2017-09-22T18:15:13.901Z,14.54
2017-09-22T18:16:15.802Z,14.54
2017-09-22T18:17:17.688Z,14.45
2017-09-22T18:18:19.578Z,14.42
2017-09-22T18:19:21.410Z,14.35
2017-09-22T18:20:23.234Z,14.35
2017-09-22T18:21:25.120Z,14.32
2017-09-22T18:22:27.005Z,14.36
2017-09-22T18:23:28.898Z,14.42
2017-09-22T18:24:43.057Z,14.29
2017-09-22T18:25:44.947Z,14.33
2017-09-22T18:26:46.832Z,14.32
2017-09-22T18:27:48.720Z,14.29
2017-09-22T18:28:50.538Z,14.33
2017-09-22T18:29:52.367Z,14.29
2017-09-22T18:30:54.211Z,14.29
2017-09-22T18:31:56.057Z,14.33
2017-09-22T18:32:57.888Z,14.32
2017-09-22T18:34:12.048Z,14.36
2017-09-22T18:35:13.936Z,14.43
2017-09-22T18:36:15.821Z,14.46
2017-09-22T18:37:17.709Z,14.50
2017-09-22T18:38:19.529Z,14.55
2017-09-22T18:39:21.356Z,14.58
2017-09-22T18:40:23.250Z,14.54
2017-09-22T18:41:25.135Z,14.54
2017-09-22T18:42:27.017Z,14.46
2017-09-22T18:43:41.177Z,14.33
2017-09-22T18:44:43.065Z,14.27
2017-09-22T18:45:44.951Z,14.21
2017-09-22T18:46:46.836Z,14.15
2017-09-22T18:47:48.666Z,14.18
2017-09-22T18:48:50.486Z,14.02
2017-09-22T18:49:52.384Z,14.06
2017-09-22T18:50:54.268Z,14.02
2017-09-22T18:51:56.184Z,13.99
2017-09-22T18:53:10.311Z,13.99
2017-09-22T18:54:12.196Z,13.95
2017-09-22T18:55:14.081Z,13.91
2017-09-22T18:56:15.964Z,13.81
2017-09-22T18:57:17.796Z,13.82
2017-09-22T18:58:19.625Z,13.78
2017-09-22T18:59:21.510Z,13.75
2017-09-22T19:00:23.395Z,13.71
2017-09-22T19:01:25.277Z,13.77
2017-09-22T19:02:39.437Z,13.84
2017-09-22T19:03:41.659Z,13.82
2017-09-22T19:04:43.511Z,13.87
2017-09-22T19:05:45.399Z,13.85
